Time;durP1;ratioP1;P1;durP2;ratioP2;P2;SDS_P1;SDS_P2;PMS_P1;PMS_P2;Temp;Humidity;BMP_temperature;BMP_pressure;BME280_temperature;BME280_humidity;BME280_pressure;Samples;Min_cycle;Max_cycle;Signal;HPM_P1;HPM_P2
2023/09/18 00:00:52;;;;;;;51.22;38.53;;;;;;;17.49;100.00;100889.50;4910283;29;20059;-74
2023/09/18 00:03:24;;;;;;;55.78;40.17;;;;;;;17.53;100.00;100882.31;4925283;29;20976;-74
2023/09/18 00:05:52;;;;;;;40.85;34.90;;;;;;;17.55;100.00;100877.81;4859153;29;20043;-74
2023/09/18 00:08:20;;;;;;;45.45;35.85;;;;;;;17.53;100.00;100877.84;4925816;29;20062;-74
2023/09/18 00:10:50;;;;;;;36.17;30.27;;;;;;;17.53;100.00;100874.31;4928124;29;20048;-74
2023/09/18 00:13:18;;;;;;;39.60;33.53;;;;;;;17.48;100.00;100863.75;4910160;29;20040;-74
2023/09/18 00:15:52;;;;;;;50.85;37.08;;;;;;;17.43;100.00;100855.03;4915691;29;20044;-74
2023/09/18 00:18:20;;;;;;;43.03;33.47;;;;;;;17.41;100.00;100859.53;4910249;29;20056;-74
2023/09/18 00:20:48;;;;;;;36.80;30.73;;;;;;;17.40;100.00;100849.75;4888564;29;20050;-74
2023/09/18 00:23:15;;;;;;;43.65;35.72;;;;;;;17.41;100.00;100847.97;4887942;29;20071;-74
2023/09/18 00:25:43;;;;;;;47.58;36.88;;;;;;;17.40;100.00;100840.91;4895164;29;20055;-74
2023/09/18 00:28:10;;;;;;;46.50;35.53;;;;;;;17.40;100.00;100830.25;4908270;29;20060;-74
2023/09/18 00:30:46;;;;;;;52.40;41.45;;;;;;;17.40;100.00;100817.81;4886767;29;20825;-74
2023/09/18 00:33:14;;;;;;;46.13;35.55;;;;;;;17.40;100.00;100806.28;4924240;29;20044;-74
2023/09/18 00:35:48;;;;;;;49.17;38.92;;;;;;;17.40;100.00;100798.28;4902277;29;20052;-74
2023/09/18 00:38:17;;;;;;;63.15;45.13;;;;;;;17.40;100.00;100785.84;4871675;29;20518;-74
2023/09/18 00:40:44;;;;;;;61.45;45.13;;;;;;;17.40;100.00;100776.97;4939587;29;20063;-74
2023/09/18 00:43:12;;;;;;;64.97;47.97;;;;;;;17.40;100.00;100751.22;4942181;29;20031;-74
2023/09/18 00:45:43;;;;;;;68.10;49.63;;;;;;;17.41;100.00;100750.31;4929579;29;20503;-74
2023/09/18 00:48:11;;;;;;;52.70;39.55;;;;;;;17.45;100.00;100738.66;4920669;29;21041;-75
2023/09/18 00:50:39;;;;;;;57.92;43.10;;;;;;;17.44;100.00;100728.91;4937760;28;20047;-74
2023/09/18 00:53:08;;;;;;;53.25;42.08;;;;;;;17.45;100.00;100736.00;4868396;28;20815;-75
2023/09/18 00:55:37;;;;;;;52.55;41.55;;;;;;;17.46;100.00;100723.53;4948050;28;20068;-74
2023/09/18 00:58:07;;;;;;;66.70;50.72;;;;;;;17.49;100.00;100712.81;4945809;29;20059;-74
2023/09/18 01:00:34;;;;;;;68.20;51.58;;;;;;;17.56;100.00;100711.72;4960023;28;20058;-73
2023/09/18 01:03:03;;;;;;;62.55;44.55;;;;;;;17.60;100.00;100707.16;4935555;29;20047;-74
2023/09/18 01:05:35;;;;;;;59.97;45.40;;;;;;;17.62;100.00;100700.88;4930075;29;20070;-74
2023/09/18 01:08:04;;;;;;;70.30;55.35;;;;;;;17.65;100.00;100705.25;4885787;28;20066;-73
2023/09/18 01:10:40;;;;;;;77.28;53.15;;;;;;;17.64;100.00;100685.72;4917964;29;20047;-74
2023/09/18 01:13:15;;;;;;;72.38;54.25;;;;;;;17.65;100.00;100678.59;4929916;29;20055;-74
2023/09/18 01:15:57;;;;;;;80.30;57.60;;;;;;;17.66;100.00;100685.69;4926741;29;20059;-73
2023/09/18 01:18:24;;;;;;;76.38;53.58;;;;;;;17.65;100.00;100663.47;4912304;28;20063;-74
2023/09/18 01:20:52;;;;;;;87.03;66.18;;;;;;;17.66;100.00;100664.38;4931966;29;20050;-75
2023/09/18 01:23:19;;;;;;;75.70;59.42;;;;;;;17.68;100.00;100660.75;4921963;29;20450;-74
2023/09/18 01:25:47;;;;;;;77.72;58.58;;;;;;;17.71;100.00;100658.00;4863511;29;20529;-74
2023/09/18 01:28:16;;;;;;;76.32;57.42;;;;;;;17.76;100.00;100659.66;4914707;29;20047;-75
2023/09/18 01:30:44;;;;;;;72.65;51.50;;;;;;;17.76;100.00;100660.50;4949842;29;20063;-75
2023/09/18 01:33:13;;;;;;;84.00;58.55;;;;;;;17.76;100.00;100649.84;4904751;29;20047;-75
2023/09/18 01:35:42;;;;;;;67.55;51.15;;;;;;;17.77;100.00;100656.03;4928946;29;20051;-74
2023/09/18 01:38:12;;;;;;;65.63;48.78;;;;;;;17.76;100.00;100641.84;4961727;28;20736;-75
2023/09/18 01:40:41;;;;;;;68.65;51.38;;;;;;;17.79;100.00;100644.44;4884568;29;20044;-75
2023/09/18 01:43:08;;;;;;;79.20;61.03;;;;;;;17.81;100.00;100639.94;4913730;29;20498;-74
2023/09/18 01:45:37;;;;;;;69.90;50.25;;;;;;;17.81;100.00;100639.94;4932391;29;20059;-74
2023/09/18 01:48:06;;;;;;;77.60;52.08;;;;;;;17.82;100.00;100635.47;4903537;29;20047;-74
2023/09/18 01:50:33;;;;;;;71.93;51.53;;;;;;;17.81;100.00;100642.59;4938296;28;20051;-75
2023/09/18 01:53:00;;;;;;;64.55;48.03;;;;;;;17.80;100.00;100638.16;4933949;29;20047;-75
2023/09/18 01:55:29;;;;;;;60.55;46.92;;;;;;;17.79;100.00;100641.78;4872400;28;20051;-75
2023/09/18 01:57:57;;;;;;;64.13;48.78;;;;;;;17.79;100.00;100641.78;4929964;28;20132;-75
2023/09/18 02:00:24;;;;;;;64.13;48.50;;;;;;;17.78;100.00;100640.00;4915660;29;20054;-75
2023/09/18 02:02:53;;;;;;;60.72;46.83;;;;;;;17.78;100.00;100636.47;4946411;28;20055;-75
2023/09/18 02:05:37;;;;;;;64.75;47.75;;;;;;;17.77;100.00;100630.28;4938995;29;20037;-74
2023/09/18 02:08:05;;;;;;;57.90;44.28;;;;;;;17.73;100.00;100621.50;4918039;29;20066;-74
2023/09/18 02:10:32;;;;;;;58.85;41.67;;;;;;;17.72;100.00;100624.22;4903088;28;20088;-74
2023/09/18 02:13:00;;;;;;;56.15;45.15;;;;;;;17.71;100.00;100622.44;4944861;29;20054;-75
2023/09/18 02:15:31;;;;;;;46.05;37.13;;;;;;;17.71;100.00;100617.13;4916087;29;20908;-75
2023/09/18 02:17:58;;;;;;;43.28;34.42;;;;;;;17.71;100.00;100617.13;4899066;29;20055;-73
2023/09/18 02:20:25;;;;;;;42.25;34.75;;;;;;;17.70;100.00;100607.41;4933202;29;20055;-74
2023/09/18 02:22:53;;;;;;;39.15;33.80;;;;;;;17.70;100.00;100604.75;4931075;29;20054;-74
2023/09/18 02:25:21;;;;;;;38.92;31.30;;;;;;;17.70;100.00;100602.06;4894462;28;20054;-74
2023/09/18 02:27:49;;;;;;;34.30;28.08;;;;;;;17.70;100.00;100594.06;4932437;29;20704;-75
2023/09/18 02:30:19;;;;;;;33.88;27.92;;;;;;;17.71;100.00;100591.38;4929638;29;20062;-74
2023/09/18 02:32:46;;;;;;;33.40;24.77;;;;;;;17.71;100.00;100582.47;4915284;29;20044;-75
2023/09/18 02:35:14;;;;;;;28.65;25.55;;;;;;;17.72;100.00;100571.78;4936477;28;20040;-75
2023/09/18 02:37:41;;;;;;;42.20;32.65;;;;;;;17.73;100.00;100573.53;4946392;29;20051;-75
2023/09/18 02:40:09;;;;;;;41.65;31.10;;;;;;;17.76;100.00;100579.69;4953261;28;20052;-75
2023/09/18 02:42:36;;;;;;;57.15;34.30;;;;;;;17.77;100.00;100576.09;4866637;29;20055;-75
2023/09/18 02:45:04;;;;;;;44.97;35.00;;;;;;;17.79;100.00;100576.91;4931787;29;20039;-74
2023/09/18 02:47:33;;;;;;;50.53;36.70;;;;;;;17.79;100.00;100568.91;4928027;29;20051;-75
2023/09/18 02:50:01;;;;;;;41.90;32.25;;;;;;;17.80;100.00;100566.22;4919205;28;20058;-74
2023/09/18 02:52:29;;;;;;;34.13;25.88;;;;;;;17.80;100.00;100565.34;4927647;29;20498;-74
2023/09/18 02:54:59;;;;;;;30.77;25.65;;;;;;;17.82;100.00;100569.69;4921497;29;20490;-73
2023/09/18 02:57:26;;;;;;;24.25;20.73;;;;;;;17.82;100.00;100563.50;4868480;29;20082;-73
2023/09/18 02:59:53;;;;;;;24.88;21.02;;;;;;;17.83;100.00;100555.47;4930709;29;20422;-74
2023/09/18 03:02:21;;;;;;;24.80;19.23;;;;;;;17.83;100.00;100550.13;4924284;29;20046;-73
2023/09/18 03:04:48;;;;;;;22.52;19.00;;;;;;;17.82;100.00;100531.53;4930005;29;20430;-74
2023/09/18 03:07:16;;;;;;;20.15;17.40;;;;;;;17.82;100.00;100543.03;4935336;28;20048;-74
2023/09/18 03:09:43;;;;;;;22.50;17.38;;;;;;;17.82;100.00;100537.72;4928767;28;20047;-73
2023/09/18 03:12:11;;;;;;;18.23;16.38;;;;;;;17.83;100.00;100534.16;4935462;29;20046;-74
2023/09/18 03:14:38;;;;;;;17.77;15.75;;;;;;;17.84;100.00;100532.34;4907954;29;20050;-74
2023/09/18 03:17:06;;;;;;;20.67;16.42;;;;;;;17.84;100.00;100516.34;4915593;29;20417;-74
2023/09/18 03:19:33;;;;;;;16.40;14.70;;;;;;;17.85;100.00;100516.34;4927134;29;20055;-74
2023/09/18 03:22:02;;;;;;;17.77;16.02;;;;;;;17.86;100.00;100502.09;4903538;29;20051;-74
2023/09/18 03:24:30;;;;;;;16.30;14.68;;;;;;;17.86;100.00;100502.09;4912054;28;20062;-74
2023/09/18 03:26:57;;;;;;;18.30;15.65;;;;;;;17.86;100.00;100495.88;4928149;29;20051;-73
2023/09/18 03:29:25;;;;;;;19.77;15.38;;;;;;;17.86;100.00;100485.22;4882100;29;20047;-74
2023/09/18 03:31:53;;;;;;;17.55;15.73;;;;;;;17.86;100.00;100479.88;4930292;29;20054;-75
2023/09/18 03:34:20;;;;;;;19.42;15.93;;;;;;;17.87;100.00;100463.84;4944527;29;20051;-73
2023/09/18 03:36:47;;;;;;;20.42;17.83;;;;;;;17.87;100.00;100453.19;4919307;29;20055;-74
2023/09/18 03:39:15;;;;;;;19.02;15.75;;;;;;;17.87;100.00;100445.19;4945671;29;20102;-74
2023/09/18 03:41:42;;;;;;;21.75;19.48;;;;;;;17.88;100.00;100430.97;4887220;29;20054;-74
2023/09/18 03:44:10;;;;;;;20.08;18.00;;;;;;;17.90;100.00;100415.78;4884857;29;20062;-73
2023/09/18 03:46:37;;;;;;;24.30;21.90;;;;;;;17.91;100.00;100403.31;4936179;29;20055;-74
2023/09/18 03:49:05;;;;;;;25.27;22.70;;;;;;;17.91;100.00;100417.50;4912633;29;20047;-74
2023/09/18 03:51:36;;;;;;;21.50;18.50;;;;;;;17.90;100.00;100402.47;4893330;29;20066;-74
2023/09/18 03:54:03;;;;;;;21.58;19.05;;;;;;;17.89;100.00;100405.16;4947954;28;20059;-74
2023/09/18 03:56:31;;;;;;;23.85;21.17;;;;;;;17.87;100.00;100397.22;4940895;28;20055;-74
2023/09/18 03:59:00;;;;;;;31.15;26.02;;;;;;;17.87;100.00;100383.91;4901912;29;20561;-74
2023/09/18 04:01:28;;;;;;;26.30;23.70;;;;;;;17.88;100.00;100366.09;4863341;29;20059;-74
2023/09/18 04:03:56;;;;;;;26.58;23.58;;;;;;;17.88;100.00;100359.00;4912967;29;20059;-74
2023/09/18 04:06:24;;;;;;;23.45;20.90;;;;;;;17.87;100.00;100359.91;4913635;29;20436;-74
2023/09/18 04:08:51;;;;;;;28.60;23.90;;;;;;;17.87;100.00;100361.72;4942692;28;20059;-75
2023/09/18 04:11:19;;;;;;;22.80;20.38;;;;;;;17.86;100.00;100349.28;4910254;29;20047;-74
2023/09/18 04:13:47;;;;;;;29.60;22.63;;;;;;;17.86;100.00;100352.84;4903093;29;20537;-74
2023/09/18 04:16:17;;;;;;;38.47;33.75;;;;;;;17.86;100.00;100350.19;4880255;29;20051;-74
2023/09/18 04:18:44;;;;;;;53.13;44.28;;;;;;;17.86;100.00;100349.28;4928948;28;20058;-74
2023/09/18 04:21:12;;;;;;;57.47;48.80;;;;;;;17.86;100.00;100330.63;4910445;28;20589;-74
2023/09/18 04:23:39;;;;;;;53.67;47.63;;;;;;;17.86;100.00;100317.31;4935639;29;20059;-74
2023/09/18 04:26:07;;;;;;;73.30;64.55;;;;;;;17.86;100.00;100315.53;4925912;28;20044;-74
2023/09/18 04:28:34;;;;;;;80.10;63.42;;;;;;;17.87;100.00;100295.06;4942745;28;20541;-74
2023/09/18 04:31:02;;;;;;;72.82;59.65;;;;;;;17.85;100.00;100281.81;4876018;29;20043;-75
2023/09/18 04:33:29;;;;;;;67.70;55.33;;;;;;;17.87;100.00;100287.09;4891713;29;20837;-74
2023/09/18 04:35:57;;;;;;;57.75;47.88;;;;;;;17.87;100.00;100279.94;4917155;29;20044;-74
2023/09/18 04:38:25;;;;;;;47.78;40.17;;;;;;;17.88;100.00;100270.16;4932258;28;20039;-74
2023/09/18 04:40:59;;;;;;;41.60;35.65;;;;;;;17.87;100.00;100269.28;4932889;28;20055;-74
2023/09/18 04:43:29;;;;;;;51.88;46.35;;;;;;;17.88;100.00;100268.38;4919704;29;20070;-74
2023/09/18 04:45:57;;;;;;;62.40;53.88;;;;;;;17.89;100.00;100272.75;4913367;29;20058;-74
2023/09/18 04:48:25;;;;;;;63.78;55.60;;;;;;;17.91;100.00;100272.72;4867009;28;20058;-74
2023/09/18 04:50:52;;;;;;;69.90;62.10;;;;;;;17.91;100.00;100265.56;4928027;29;20628;-74
2023/09/18 04:53:20;;;;;;;57.47;48.28;;;;;;;17.94;100.00;100269.94;4932762;29;20786;-74
2023/09/18 04:55:50;;;;;;;58.38;46.47;;;;;;;17.94;100.00;100261.94;4933523;28;20047;-74
2023/09/18 04:58:19;;;;;;;55.05;47.35;;;;;;;17.94;100.00;100259.28;4925368;28;20502;-74
2023/09/18 05:00:46;;;;;;;59.17;44.53;;;;;;;17.93;100.00;100253.06;4917934;29;20055;-74
2023/09/18 05:03:14;;;;;;;45.55;34.53;;;;;;;17.95;100.00;100258.34;4861538;29;20414;-73
2023/09/18 05:05:44;;;;;;;42.05;32.92;;;;;;;17.95;100.00;100249.47;4927393;29;20054;-73
2023/09/18 05:08:11;;;;;;;35.40;28.35;;;;;;;17.98;100.00;100249.38;4922430;29;20059;-73
2023/09/18 05:10:39;;;;;;;38.15;27.77;;;;;;;17.98;100.00;100241.38;4921720;28;20043;-74
2023/09/18 05:13:07;;;;;;;32.22;23.98;;;;;;;17.99;100.00;100233.31;4912028;29;20036;-75
2023/09/18 05:15:34;;;;;;;28.42;20.30;;;;;;;17.99;100.00;100219.97;4939086;28;20662;-74
2023/09/18 05:18:03;;;;;;;19.70;16.92;;;;;;;18.00;100.00;100215.53;4899199;28;20035;-75
2023/09/18 05:20:31;;;;;;;21.38;16.38;;;;;;;18.00;100.00;100215.53;4942506;28;20047;-74
2023/09/18 05:23:00;;;;;;;21.67;14.75;;;;;;;18.01;100.00;100211.94;4927957;28;20502;-74
2023/09/18 05:25:31;;;;;;;17.73;12.77;;;;;;;18.01;100.00;100209.25;4900994;29;20617;-74
2023/09/18 05:28:00;;;;;;;20.10;13.38;;;;;;;18.01;100.00;100198.59;4933800;29;20505;-75
2023/09/18 05:30:32;;;;;;;17.48;12.85;;;;;;;18.02;100.00;100187.88;4941887;29;20282;-74
2023/09/18 05:33:04;;;;;;;14.88;12.63;;;;;;;18.04;100.00;100179.84;4890144;28;20051;-74
2023/09/18 05:35:40;;;;;;;14.25;11.95;;;;;;;18.04;100.00;100180.69;4943041;29;20043;-74
2023/09/18 05:38:10;;;;;;;14.15;12.38;;;;;;;18.06;100.00;100178.84;4884494;29;20051;-74
2023/09/18 05:40:38;;;;;;;17.63;12.52;;;;;;;18.08;100.00;100178.78;4919261;29;20090;-74
2023/09/18 05:43:07;;;;;;;15.80;11.52;;;;;;;18.10;100.00;100168.94;4903877;29;20106;-74
2023/09/18 05:45:35;;;;;;;12.65;11.30;;;;;;;18.11;100.00;100160.88;4924049;29;20066;-74
2023/09/18 05:48:05;;;;;;;15.32;11.30;;;;;;;18.15;100.00;100184.72;4871464;29;20411;-74
2023/09/18 05:50:35;;;;;;;16.02;11.52;;;;;;;18.16;100.00;100187.34;4928040;29;20046;-74
2023/09/18 05:53:03;;;;;;;15.07;11.13;;;;;;;18.17;100.00;100190.91;4947304;29;20409;-74
2023/09/18 05:55:33;;;;;;;16.00;12.18;;;;;;;18.17;100.00;100181.09;4946274;28;20058;-74
2023/09/18 05:58:01;;;;;;;14.80;10.90;;;;;;;18.19;100.00;100184.56;4905210;28;20097;-74
2023/09/18 06:00:30;;;;;;;17.88;11.38;;;;;;;18.21;100.00;100185.38;4946460;29;20051;-76
2023/09/18 06:02:59;;;;;;;12.98;10.43;;;;;;;18.22;100.00;100172.91;4880826;28;20055;-74
2023/09/18 06:05:27;;;;;;;15.07;10.40;;;;;;;18.22;100.00;100168.47;4925460;29;20059;-74
2023/09/18 06:07:54;;;;;;;12.68;10.43;;;;;;;18.24;100.00;100169.28;4929118;28;20044;-73
2023/09/18 06:10:21;;;;;;;13.00;10.20;;;;;;;18.25;100.00;100173.66;4953677;28;20512;-73
2023/09/18 06:12:49;;;;;;;13.07;10.68;;;;;;;18.28;100.00;100167.34;4893625;28;20040;-74
2023/09/18 06:15:16;;;;;;;15.05;10.32;;;;;;;18.30;100.00;100165.50;4890206;29;20048;-73
2023/09/18 06:17:44;;;;;;;15.23;9.82;;;;;;;18.33;100.00;100161.81;4920573;28;20043;-74
2023/09/18 06:20:15;;;;;;;11.60;9.88;;;;;;;18.35;100.00;100158.16;4882941;28;20050;-73
2023/09/18 06:22:43;;;;;;;13.48;9.68;;;;;;;18.37;100.00;100163.44;4900785;29;20062;-73
2023/09/18 06:25:11;;;;;;;12.57;9.70;;;;;;;18.37;100.00;100158.09;4906811;28;20067;-75
2023/09/18 06:27:38;;;;;;;11.73;8.95;;;;;;;18.37;100.00;100158.97;4916742;29;20058;-73
2023/09/18 06:30:07;;;;;;;18.05;8.88;;;;;;;18.38;100.00;100157.19;4941816;28;20043;-73
2023/09/18 06:32:34;;;;;;;17.55;10.30;;;;;;;18.38;100.00;100154.50;4934162;28;20051;-73
2023/09/18 06:35:02;;;;;;;11.30;9.30;;;;;;;18.38;100.00;100171.38;4883380;28;20051;-72
2023/09/18 06:37:29;;;;;;;11.82;9.60;;;;;;;18.38;100.00;100173.19;4941625;28;20054;-73
2023/09/18 06:39:57;;;;;;;13.85;9.35;;;;;;;18.38;100.00;100178.53;4890876;29;20499;-73
2023/09/18 06:42:24;;;;;;;12.75;8.73;;;;;;;18.37;100.00;100177.63;4920323;28;20043;-74
2023/09/18 06:44:57;;;;;;;11.82;9.40;;;;;;;18.36;100.00;100183.91;4916217;29;20052;-75
2023/09/18 06:47:25;;;;;;;13.38;9.68;;;;;;;18.36;100.00;100177.72;4874404;29;23313;-74
2023/09/18 06:49:52;;;;;;;14.40;10.18;;;;;;;18.36;100.00;100185.72;4848116;29;20055;-75
2023/09/18 06:52:20;;;;;;;20.00;9.23;;;;;;;18.35;100.00;100175.97;4896197;29;20056;-74
2023/09/18 06:54:47;;;;;;;13.70;9.45;;;;;;;18.36;100.00;100175.06;4921654;29;20051;-74
2023/09/18 06:57:15;;;;;;;15.57;9.77;;;;;;;18.36;100.00;100175.06;4900946;29;20039;-74
2023/09/18 06:59:42;;;;;;;17.45;9.68;;;;;;;18.35;100.00;100182.16;4886981;29;20054;-73
2023/09/18 07:02:10;;;;;;;15.82;9.90;;;;;;;18.34;100.00;100185.78;4915934;29;20048;-74
2023/09/18 07:04:44;;;;;;;17.90;10.88;;;;;;;18.32;100.00;100174.28;4914803;29;20047;-73
2023/09/18 07:07:13;;;;;;;14.35;9.82;;;;;;;18.29;100.00;100175.25;4864110;29;20055;-73
2023/09/18 07:09:41;;;;;;;19.08;9.68;;;;;;;18.30;100.00;100190.34;4878954;29;20052;-75
2023/09/18 07:12:29;;;;;;;16.55;9.43;;;;;;;18.28;100.00;100186.03;4907920;29;20051;-74
2023/09/18 07:14:56;;;;;;;15.98;10.27;;;;;;;18.27;100.00;100186.94;4884647;29;20054;-74
2023/09/18 07:17:23;;;;;;;11.95;8.90;;;;;;;18.26;100.00;100196.75;4897230;29;20063;-75
2023/09/18 07:19:51;;;;;;;14.60;9.70;;;;;;;18.26;100.00;100202.06;4914052;29;20047;-74
2023/09/18 07:22:18;;;;;;;14.98;9.50;;;;;;;18.24;100.00;100198.59;4847125;29;20060;-74
2023/09/18 07:24:46;;;;;;;16.75;10.15;;;;;;;18.24;100.00;100208.38;4900566;29;20048;-74
2023/09/18 07:27:13;;;;;;;15.30;9.15;;;;;;;18.21;100.00;100214.72;4899285;29;20405;-73
2023/09/18 07:29:41;;;;;;;16.05;9.98;;;;;;;18.20;100.00;100236.94;4890461;29;20056;-74
2023/09/18 07:32:09;;;;;;;18.17;10.43;;;;;;;18.18;100.00;100225.47;4871045;29;20497;-74
2023/09/18 07:34:37;;;;;;;19.08;11.25;;;;;;;18.18;100.00;100235.28;4893751;29;20056;-74
2023/09/18 07:37:04;;;;;;;27.75;11.27;;;;;;;18.16;100.00;100254.00;4862277;29;20052;-74
2023/09/18 07:39:32;;;;;;;21.20;10.88;;;;;;;18.12;100.00;100266.56;4893537;29;20056;-74
2023/09/18 07:42:00;;;;;;;22.98;11.82;;;;;;;18.10;100.00;100265.75;4901009;29;20684;-74
2023/09/18 07:44:27;;;;;;;22.40;12.10;;;;;;;18.08;100.00;100269.44;4901182;29;20067;-74
2023/09/18 07:46:55;;;;;;;19.95;11.05;;;;;;;18.07;100.00;100270.34;4924923;29;20059;-74
2023/09/18 07:49:22;;;;;;;19.00;11.88;;;;;;;18.06;100.00;100257.94;4912983;29;20062;-75
2023/09/18 07:51:49;;;;;;;17.67;12.20;;;;;;;18.04;100.00;100247.34;4864777;29;20071;-74
2023/09/18 07:54:17;;;;;;;17.77;11.32;;;;;;;18.03;100.00;100234.06;4888675;29;20059;-74
2023/09/18 07:56:44;;;;;;;16.50;11.40;;;;;;;18.02;100.00;100216.34;4889481;29;20039;-74
2023/09/18 07:59:14;;;;;;;11.32;8.25;;;;;;;18.02;100.00;100201.22;4908295;29;20048;-75
2023/09/18 08:01:41;;;;;;;13.37;8.13;;;;;;;18.00;100.00;100184.41;4900714;29;20044;-75
2023/09/18 08:04:09;;;;;;;11.68;8.68;;;;;;;18.00;100.00;100189.75;4899196;29;20411;-75
2023/09/18 08:06:37;;;;;;;13.63;8.55;;;;;;;18.01;100.00;100179.94;4882453;29;20040;-76
2023/09/18 08:09:05;;;;;;;11.52;8.52;;;;;;;17.99;100.00;100174.66;4902667;29;20047;-74
2023/09/18 08:11:33;;;;;;;15.57;9.50;;;;;;;17.98;100.00;100172.06;4919081;28;20066;-76
2023/09/18 08:14:00;;;;;;;13.63;7.78;;;;;;;17.97;100.00;100173.00;4896625;29;20074;-76
2023/09/18 08:16:28;;;;;;;14.10;8.77;;;;;;;17.97;100.00;100178.31;4930608;29;20058;-74
2023/09/18 08:18:56;;;;;;;16.10;10.02;;;;;;;17.98;100.00;100175.59;4922173;29;20046;-74
2023/09/18 08:21:24;;;;;;;13.63;9.88;;;;;;;18.00;100.00;100167.56;4890051;29;20051;-74
2023/09/18 08:23:51;;;;;;;15.85;10.30;;;;;;;18.04;100.00;100185.16;4852227;29;20521;-75
2023/09/18 08:26:19;;;;;;;12.60;9.50;;;;;;;18.07;100.00;100211.69;4896164;29;20047;-75
2023/09/18 08:28:46;;;;;;;14.00;10.18;;;;;;;18.09;100.00;100197.38;4913813;29;20070;-75
2023/09/18 08:31:16;;;;;;;14.63;10.05;;;;;;;18.10;100.00;100207.13;4878942;29;20048;-75
2023/09/18 08:33:43;;;;;;;17.70;10.25;;;;;;;18.11;100.00;100221.34;4909211;29;20082;-75
2023/09/18 08:36:12;;;;;;;17.35;10.27;;;;;;;18.12;100.00;100204.38;4896179;29;20055;-75
2023/09/18 08:38:39;;;;;;;15.10;10.73;;;;;;;18.14;100.00;100205.19;4884298;29;20048;-74
2023/09/18 08:41:09;;;;;;;15.88;10.65;;;;;;;18.18;100.00;100220.16;4900078;29;20047;-74
2023/09/18 08:43:38;;;;;;;17.38;10.75;;;;;;;18.19;100.00;100213.91;4907305;29;20059;-74
2023/09/18 08:46:09;;;;;;;16.15;10.60;;;;;;;18.19;100.00;100216.56;4898164;29;20808;-74
2023/09/18 08:48:38;;;;;;;15.20;11.27;;;;;;;18.20;100.00;100212.09;4941597;29;20043;-75
2023/09/18 08:51:08;;;;;;;16.13;10.70;;;;;;;18.21;100.00;100212.03;4949895;28;20498;-74
2023/09/18 08:53:36;;;;;;;21.83;11.60;;;;;;;18.21;100.00;100225.38;4878994;29;20502;-75
2023/09/18 08:56:04;;;;;;;16.20;10.35;;;;;;;18.23;100.00;100222.66;4948728;28;20050;-74
2023/09/18 08:58:37;;;;;;;14.70;10.73;;;;;;;18.23;100.00;100204.84;4908478;28;20059;-75
2023/09/18 09:01:06;;;;;;;15.27;11.10;;;;;;;18.24;100.00;100203.94;4889526;29;20062;-75
2023/09/18 09:03:34;;;;;;;15.30;10.07;;;;;;;18.24;100.00;100208.38;4926708;29;20058;-75
2023/09/18 09:06:02;;;;;;;13.55;9.45;;;;;;;18.20;100.00;100212.94;4939237;28;20047;-75
2023/09/18 09:08:30;;;;;;;18.38;11.65;;;;;;;18.22;100.00;100229.78;4895725;28;20514;-74
2023/09/18 09:10:58;;;;;;;14.48;10.57;;;;;;;18.21;100.00;100230.72;4931041;29;20506;-74
2023/09/18 09:13:26;;;;;;;16.40;11.32;;;;;;;18.22;100.00;100236.91;4902056;29;20048;-74
2023/09/18 09:16:12;;;;;;;14.15;10.45;;;;;;;18.21;100.00;100246.72;4926481;28;20055;-74
2023/09/18 09:18:50;;;;;;;13.27;10.55;;;;;;;18.22;100.00;100242.22;4931656;29;20492;-74
2023/09/18 09:21:19;;;;;;;11.05;9.50;;;;;;;18.24;100.00;100219.03;4939565;29;20054;-74
2023/09/18 09:23:51;;;;;;;11.68;9.52;;;;;;;18.26;100.00;100222.50;4876813;29;20086;-74
2023/09/18 09:26:25;;;;;;;13.25;9.75;;;;;;;18.30;100.00;100241.03;4957697;28;20054;-74
2023/09/18 09:28:53;;;;;;;12.70;9.70;;;;;;;18.33;100.00;100239.16;4916460;29;20059;-75
2023/09/18 09:31:29;;;;;;;14.98;10.23;;;;;;;18.35;100.00;100238.16;4905463;29;20420;-75
2023/09/18 09:33:58;;;;;;;11.18;9.95;;;;;;;18.36;100.00;100239.06;4912426;29;20070;-75
2023/09/18 09:36:26;;;;;;;10.43;9.43;;;;;;;18.37;100.00;100228.31;4928029;29;20054;-75
2023/09/18 09:39:00;;;;;;;14.60;10.48;;;;;;;18.40;100.00;100216.66;4915067;29;20815;-75
2023/09/18 09:41:30;;;;;;;13.57;10.02;;;;;;;18.42;100.00;100221.00;4889809;29;20047;-75
2023/09/18 09:43:58;;;;;;;12.02;10.48;;;;;;;18.47;100.00;100215.50;4944177;28;20058;-75
2023/09/18 09:46:27;;;;;;;13.20;9.63;;;;;;;18.54;100.00;100227.66;4936666;28;20043;-75
2023/09/18 09:49:05;;;;;;;14.10;10.45;;;;;;;18.59;100.00;100235.47;4951276;28;20118;-75
2023/09/18 09:51:34;;;;;;;10.50;9.48;;;;;;;18.63;100.00;100232.63;4943333;29;20431;-75
2023/09/18 09:54:01;;;;;;;12.50;9.68;;;;;;;18.65;100.00;100233.41;4941414;29;20056;-74
2023/09/18 09:56:50;;;;;;;13.95;10.45;;;;;;;18.66;100.00;100237.84;4894387;28;20066;-73
2023/09/18 09:59:19;;;;;;;12.85;10.90;;;;;;;18.69;100.00;100228.84;4934124;29;20543;-74
2023/09/18 10:01:50;;;;;;;12.27;11.00;;;;;;;18.71;100.00;100221.63;4934214;28;20115;-74
2023/09/18 10:04:19;;;;;;;13.80;12.02;;;;;;;18.77;100.00;100223.19;4945821;28;20059;-75
2023/09/18 10:06:56;;;;;;;12.55;10.30;;;;;;;18.85;100.00;100226.47;4936618;28;20498;-75
2023/09/18 10:09:28;;;;;;;12.02;10.68;;;;;;;18.92;100.00;100233.25;4915146;29;20047;-75
2023/09/18 10:11:57;;;;;;;14.13;10.02;;;;;;;18.98;100.00;100241.03;4903553;28;20051;-75
2023/09/18 10:14:36;;;;;;;14.55;10.77;;;;;;;19.02;100.00;100239.13;4894870;29;20047;-75
2023/09/18 10:17:24;;;;;;;13.85;10.43;;;;;;;19.06;100.00;100230.91;4916162;29;20054;-75
2023/09/18 10:20:15;;;;;;;16.42;11.38;;;;;;;19.13;100.00;100227.97;4903514;29;20054;-77
2023/09/18 10:22:49;;;;;;;14.45;11.15;;;;;;;19.19;100.00;100233.06;4917707;28;20058;-77
2023/09/18 10:25:21;;;;;;;14.40;11.43;;;;;;;19.23;100.00;100240.03;4936493;28;20047;-73
2023/09/18 10:27:52;;;;;;;18.80;10.65;;;;;;;19.27;100.00;100250.50;4891191;29;20051;-74
2023/09/18 10:30:23;;;;;;;17.27;12.32;;;;;;;19.29;100.00;100247.75;4898147;28;20055;-75
2023/09/18 10:32:51;;;;;;;18.67;12.93;;;;;;;19.33;100.00;100244.03;4936468;29;20055;-74
2023/09/18 10:35:20;;;;;;;15.55;11.48;;;;;;;19.39;100.00;100256.25;4915662;29;20047;-74
2023/09/18 10:37:51;;;;;;;13.70;12.02;;;;;;;19.46;100.00;100255.91;4949625;28;20530;-74
2023/09/18 10:40:20;;;;;;;31.55;12.68;;;;;;;19.57;100.00;100241.25;4919389;29;20379;-75
2023/09/18 10:42:52;;;;;;;20.10;13.55;;;;;;;19.72;100.00;100240.59;4882644;29;20051;-75
2023/09/18 10:45:19;;;;;;;19.60;14.63;;;;;;;19.87;100.00;100239.03;4928505;29;20051;-75
2023/09/18 10:47:49;;;;;;;20.15;13.20;;;;;;;19.95;100.00;100238.69;4950762;28;20702;-75
2023/09/18 10:50:26;;;;;;;17.15;12.57;;;;;;;19.96;100.00;100243.09;4947475;28;20047;-75
2023/09/18 10:52:58;;;;;;;13.43;11.30;;;;;;;20.01;100.00;100254.44;4932628;28;20055;-75
2023/09/18 10:55:26;;;;;;;23.08;13.23;;;;;;;20.06;100.00;100253.31;4906116;28;20051;-75
2023/09/18 10:57:56;;;;;;;15.35;11.10;;;;;;;20.23;100.00;100257.03;4881453;29;20046;-75
2023/09/18 11:00:29;;;;;;;14.27;11.02;;;;;;;20.34;100.00;100251.16;4911124;29;20051;-75
2023/09/18 11:03:09;;;;;;;14.10;12.18;;;;;;;20.46;100.00;100255.94;4920427;29;20051;-75
2023/09/18 11:05:37;;;;;;;11.90;10.52;;;;;;;20.48;100.00;100261.22;4942975;28;20054;-75
2023/09/18 11:08:43;;;;;;;15.00;10.55;;;;;;;20.57;100.00;100267.00;4909488;29;20498;-75
2023/09/18 11:11:14;;;;;;;11.32;10.00;;;;;;;20.60;100.00;100263.34;4951251;28;20043;-75